Time;durP1;ratioP1;P1;durP2;ratioP2;P2;SDS_P1;SDS_P2;PMS_P1;PMS_P2;Temp;Humidity;BMP_temperature;BMP_pressure;BME280_temperature;BME280_humidity;BME280_pressure;Samples;Min_cycle;Max_cycle;Signal;HPM_P1;HPM_P2
2023/06/11 00:02:15;;;;;;;7.00;4.53;;;20.00;98.00;;;;;;5012993;28;20510;-90
2023/06/11 00:04:45;;;;;;;9.50;5.00;;;19.90;98.00;;;;;;5013469;28;20452;-91
2023/06/11 00:07:12;;;;;;;6.63;4.20;;;19.90;98.00;;;;;;5012572;28;20479;-90
2023/06/11 00:09:39;;;;;;;7.93;4.60;;;19.70;98.00;;;;;;5013269;28;21076;-90
2023/06/11 00:12:08;;;;;;;8.53;4.37;;;19.70;98.00;;;;;;5012827;28;20495;-90
2023/06/11 00:14:35;;;;;;;8.33;4.93;;;19.80;98.00;;;;;;5012834;28;20455;-91
2023/06/11 00:17:02;;;;;;;7.70;4.37;;;19.80;98.00;;;;;;5012503;28;20499;-90
2023/06/11 00:19:30;;;;;;;7.40;4.50;;;19.70;98.00;;;;;;5013182;28;20460;-90
2023/06/11 00:22:02;;;;;;;6.40;4.10;;;19.80;98.00;;;;;;5012719;28;20467;-90
2023/06/11 00:24:30;;;;;;;10.60;4.60;;;19.90;98.00;;;;;;5013047;28;20824;-91
2023/06/11 00:26:59;;;;;;;8.00;4.70;;;19.90;98.00;;;;;;5012062;28;20558;-91
2023/06/11 00:29:27;;;;;;;8.43;4.40;;;20.00;98.00;;;;;;5012535;28;20451;-90
2023/06/11 00:31:54;;;;;;;6.03;3.90;;;20.10;98.00;;;;;;5014550;28;20571;-89
2023/06/11 00:34:22;;;;;;;7.20;4.57;;;19.90;98.00;;;;;;5025542;28;20474;-89
2023/06/11 00:36:49;;;;;;;7.90;4.60;;;19.90;98.00;;;;;;5024775;28;20488;-89
2023/06/11 00:39:17;;;;;;;8.80;4.53;;;19.80;98.00;;;;;;5026415;28;20459;-89
2023/06/11 00:41:45;;;;;;;8.30;4.83;;;19.80;98.00;;;;;;5013488;28;20464;-91
2023/06/11 00:44:17;;;;;;;8.40;4.27;;;19.90;98.00;;;;;;5012940;28;20514;-90
2023/06/11 00:46:45;;;;;;;9.63;4.53;;;19.70;98.00;;;;;;5012027;28;20541;-90
2023/06/11 00:49:12;;;;;;;8.20;4.30;;;19.60;98.00;;;;;;5012501;28;20550;-90
2023/06/11 00:51:42;;;;;;;10.03;4.33;;;19.50;98.00;;;;;;5012558;28;20464;-90
2023/06/11 00:54:12;;;;;;;8.03;4.33;;;19.40;98.00;;;;;;5012688;28;20491;-90
2023/06/11 00:56:43;;;;;;;8.73;5.20;;;19.40;98.00;;;;;;5011849;28;20522;-90
2023/06/11 00:59:11;;;;;;;7.70;4.27;;;19.40;98.00;;;;;;5018664;28;20448;-90
2023/06/11 01:01:43;;;;;;;6.90;4.23;;;19.30;98.00;;;;;;5018983;28;20472;-90
2023/06/11 01:04:17;;;;;;;10.30;4.87;;;19.30;98.00;;;;;;5019180;28;20455;-90
2023/06/11 01:06:49;;;;;;;9.03;4.80;;;19.20;98.00;;;;;;5018490;28;20479;-89
2023/06/11 01:09:20;;;;;;;7.83;4.60;;;19.10;98.00;;;;;;5019198;28;20456;-89
2023/06/11 01:11:53;;;;;;;8.60;4.23;;;19.00;98.00;;;;;;5018805;28;20530;-90
2023/06/11 01:14:20;;;;;;;8.60;4.73;;;19.10;98.00;;;;;;5019033;28;20467;-90
2023/06/11 01:16:52;;;;;;;9.70;4.87;;;19.10;98.00;;;;;;5018220;28;20490;-90
2023/06/11 01:19:38;;;;;;;9.27;4.70;;;19.10;98.00;;;;;;5019072;28;20538;-91
2023/06/11 01:22:13;;;;;;;7.13;4.67;;;19.10;98.00;;;;;;5018273;28;20459;-91
2023/06/11 01:24:57;;;;;;;7.60;4.53;;;19.00;98.00;;;;;;5018533;28;20458;-91
2023/06/11 01:27:35;;;;;;;9.50;4.97;;;19.00;98.00;;;;;;5018276;28;20466;-91
2023/06/11 01:30:07;;;;;;;6.63;4.40;;;18.80;98.00;;;;;;5019039;28;20459;-92
2023/06/11 01:32:36;;;;;;;8.20;4.83;;;18.80;98.00;;;;;;5019049;28;20486;-92
2023/06/11 01:35:03;;;;;;;7.93;4.60;;;18.90;98.00;;;;;;5018077;28;20531;-91
2023/06/11 01:37:32;;;;;;;11.13;4.90;;;18.80;98.00;;;;;;5020077;28;21014;-90
2023/06/11 01:40:00;;;;;;;9.90;4.93;;;18.80;98.00;;;;;;5018656;28;20469;-90
2023/06/11 01:42:27;;;;;;;10.57;4.93;;;18.70;98.00;;;;;;5018473;28;20463;-91
2023/06/11 01:44:55;;;;;;;8.50;4.40;;;18.80;98.00;;;;;;5018780;28;20463;-90
2023/06/11 01:47:23;;;;;;;8.27;4.53;;;18.60;98.00;;;;;;5018001;28;20843;-90
2023/06/11 01:49:51;;;;;;;8.23;4.50;;;18.60;98.00;;;;;;5018324;28;20510;-90
2023/06/11 01:52:18;;;;;;;11.10;4.40;;;18.50;98.00;;;;;;5018437;28;20503;-91
2023/06/11 01:54:45;;;;;;;9.83;4.80;;;18.50;98.00;;;;;;5018849;28;20973;-91
2023/06/11 01:57:14;;;;;;;7.80;4.43;;;18.40;98.00;;;;;;5017884;28;20638;-90
2023/06/11 01:59:41;;;;;;;9.57;4.77;;;18.30;98.00;;;;;;5018370;28;20454;-90
2023/06/11 02:02:08;;;;;;;8.90;4.20;;;18.30;98.00;;;;;;5018416;28;20924;-90
2023/06/11 02:04:36;;;;;;;8.33;4.33;;;18.30;98.00;;;;;;5018602;28;20456;-90
2023/06/11 02:07:04;;;;;;;7.97;4.20;;;18.30;98.00;;;;;;5017871;28;20479;-91
2023/06/11 02:09:31;;;;;;;7.70;4.30;;;18.40;98.00;;;;;;5015181;28;20451;-91
2023/06/11 02:11:58;;;;;;;6.70;4.23;;;18.30;98.00;;;;;;5015426;28;20809;-89
2023/06/11 02:14:25;;;;;;;9.67;4.10;;;18.30;98.00;;;;;;5015318;28;20467;-90
2023/06/11 02:16:52;;;;;;;7.60;4.33;;;18.20;98.00;;;;;;5014142;28;21017;-89
2023/06/11 02:19:19;;;;;;;6.70;3.83;;;18.30;98.00;;;;;;5015483;28;21080;-90
2023/06/11 02:21:47;;;;;;;8.30;4.10;;;18.40;98.00;;;;;;5015355;28;20535;-90
2023/06/11 02:24:15;;;;;;;7.20;3.80;;;18.40;98.00;;;;;;5014797;28;20459;-89
2023/06/11 02:26:42;;;;;;;8.50;4.13;;;18.50;98.00;;;;;;5014535;28;20571;-90
2023/06/11 02:29:09;;;;;;;7.23;3.80;;;18.40;98.00;;;;;;5015043;28;20463;-90
2023/06/11 02:31:36;;;;;;;8.67;4.37;;;18.40;98.00;;;;;;5015034;28;20474;-90
2023/06/11 02:34:03;;;;;;;6.90;4.33;;;18.40;98.00;;;;;;5014603;28;20475;-90
2023/06/11 02:36:30;;;;;;;8.53;4.87;;;18.30;98.00;;;;;;5014110;28;20491;-90
2023/06/11 02:38:59;;;;;;;6.63;3.80;;;18.10;98.00;;;;;;5014784;28;20533;-90
2023/06/11 02:41:26;;;;;;;5.57;3.80;;;18.00;98.00;;;;;;5015162;28;20881;-90
2023/06/11 02:43:53;;;;;;;7.90;4.50;;;18.00;98.00;;;;;;5014741;28;20475;-90
2023/06/11 02:46:21;;;;;;;8.47;4.40;;;18.10;98.00;;;;;;5014144;28;20489;-90
2023/06/11 02:48:48;;;;;;;7.90;4.10;;;18.00;98.00;;;;;;5014736;28;20451;-89
2023/06/11 02:51:15;;;;;;;7.80;4.30;;;18.00;98.00;;;;;;5014526;28;20447;-90
2023/06/11 02:53:42;;;;;;;9.30;4.73;;;17.80;98.00;;;;;;5014628;28;20464;-89
2023/06/11 02:56:10;;;;;;;7.00;4.07;;;17.70;98.00;;;;;;5013752;28;20487;-90
2023/06/11 02:58:37;;;;;;;9.07;4.23;;;17.60;98.00;;;;;;5014649;28;20467;-90
2023/06/11 03:01:04;;;;;;;8.63;4.57;;;17.70;98.00;;;;;;5014503;28;20447;-90
2023/06/11 03:03:31;;;;;;;6.70;3.60;;;17.70;98.00;;;;;;5014630;28;20460;-90
2023/06/11 03:05:58;;;;;;;8.57;4.30;;;17.70;98.00;;;;;;5013462;28;20491;-89
2023/06/11 03:08:25;;;;;;;11.67;5.00;;;17.80;98.00;;;;;;5014091;28;20467;-90
2023/06/11 03:10:53;;;;;;;8.07;4.30;;;17.60;98.00;;;;;;5014383;28;20459;-89
2023/06/11 03:13:21;;;;;;;11.43;4.20;;;17.50;98.00;;;;;;5019214;28;20464;-91
2023/06/11 03:15:48;;;;;;;10.23;4.43;;;17.60;98.00;;;;;;5016787;28;20483;-90
2023/06/11 03:18:15;;;;;;;7.57;4.00;;;17.80;98.00;;;;;;5014529;28;21020;-90
2023/06/11 03:20:43;;;;;;;7.23;4.00;;;17.70;98.00;;;;;;5014028;28;20821;-90
2023/06/11 03:23:11;;;;;;;9.30;4.50;;;17.60;98.00;;;;;;5014732;28;20539;-90
2023/06/11 03:25:38;;;;;;;9.77;4.70;;;17.70;98.00;;;;;;5014133;28;20579;-88
2023/06/11 03:28:05;;;;;;;8.33;3.60;;;17.70;98.00;;;;;;5014467;28;20463;-89
2023/06/11 03:30:34;;;;;;;7.70;4.30;;;17.70;98.00;;;;;;5016495;28;20514;-90
2023/06/11 03:33:01;;;;;;;7.43;4.00;;;17.60;98.00;;;;;;5013693;28;20479;-90
2023/06/11 03:35:28;;;;;;;7.50;4.07;;;17.80;98.00;;;;;;5013621;28;20534;-90
2023/06/11 03:37:55;;;;;;;6.83;4.17;;;17.70;98.00;;;;;;5013047;28;20487;-90
2023/06/11 03:40:22;;;;;;;9.23;4.57;;;17.60;98.00;;;;;;5013627;28;20459;-90
2023/06/11 03:42:49;;;;;;;11.70;4.40;;;17.50;98.00;;;;;;5013548;28;20861;-90
2023/06/11 03:45:16;;;;;;;7.30;4.30;;;17.50;98.00;;;;;;5013612;28;20483;-90
2023/06/11 03:47:44;;;;;;;7.07;4.20;;;17.40;98.00;;;;;;5012889;28;20510;-90
2023/06/11 03:50:12;;;;;;;8.83;4.73;;;17.40;98.00;;;;;;5013364;28;20475;-90
2023/06/11 03:52:39;;;;;;;7.10;4.47;;;17.40;98.00;;;;;;5013459;28;20455;-91
2023/06/11 03:55:07;;;;;;;9.10;4.80;;;17.30;98.00;;;;;;5013675;28;20448;-90
2023/06/11 03:57:34;;;;;;;9.43;4.20;;;17.40;98.00;;;;;;5012376;28;20491;-90
2023/06/11 04:00:01;;;;;;;7.97;4.30;;;17.50;98.00;;;;;;5013382;28;20456;-90
2023/06/11 04:02:28;;;;;;;8.60;4.60;;;17.70;98.00;;;;;;5013200;28;20969;-89
2023/06/11 04:04:57;;;;;;;7.53;4.33;;;17.80;98.00;;;;;;5013035;28;20440;-90
2023/06/11 04:07:24;;;;;;;8.80;4.60;;;17.90;98.00;;;;;;5012588;28;20464;-90
2023/06/11 04:09:51;;;;;;;8.47;4.37;;;17.90;98.00;;;;;;5013009;28;20525;-89
2023/06/11 04:12:18;;;;;;;9.63;4.90;;;18.00;98.00;;;;;;5012904;28;20521;-90
2023/06/11 04:14:45;;;;;;;6.67;3.90;;;18.00;98.00;;;;;;5013440;28;20546;-89
2023/06/11 04:17:12;;;;;;;7.47;4.30;;;18.00;98.00;;;;;;5012280;28;20847;-90
2023/06/11 04:19:39;;;;;;;8.47;4.63;;;17.90;98.00;;;;;;5012967;28;20787;-89
2023/06/11 04:22:07;;;;;;;7.80;4.23;;;17.90;98.00;;;;;;5012959;28;20459;-90
2023/06/11 04:24:34;;;;;;;7.87;4.00;;;18.10;98.00;;;;;;5013055;28;20464;-90
2023/06/11 04:27:02;;;;;;;6.87;4.00;;;18.20;98.00;;;;;;5012188;28;20490;-89
2023/06/11 04:29:29;;;;;;;7.37;4.00;;;18.20;98.00;;;;;;5013492;28;20634;-90
2023/06/11 04:32:03;;;;;;;10.20;3.90;;;18.30;98.00;;;;;;5012991;28;20467;-90
2023/06/11 04:34:30;;;;;;;10.40;4.40;;;18.40;98.00;;;;;;5013646;28;20514;-90
2023/06/11 04:36:57;;;;;;;7.00;4.17;;;18.50;98.00;;;;;;5012735;28;20471;-90
2023/06/11 04:39:27;;;;;;;6.80;3.50;;;18.60;98.00;;;;;;5013366;28;20547;-90
2023/06/11 04:41:54;;;;;;;6.30;4.13;;;18.50;98.00;;;;;;5013300;28;21024;-90
2023/06/11 04:44:22;;;;;;;8.07;3.80;;;18.60;98.00;;;;;;5013898;28;20513;-90
2023/06/11 04:46:49;;;;;;;8.00;3.93;;;18.60;98.00;;;;;;5010942;28;20559;-90
2023/06/11 04:49:20;;;;;;;7.43;4.20;;;18.60;98.00;;;;;;5012391;28;21052;-89
2023/06/11 04:51:48;;;;;;;6.70;3.90;;;18.70;98.00;;;;;;5012959;28;20460;-89
2023/06/11 04:54:17;;;;;;;6.60;3.73;;;18.80;98.00;;;;;;5012900;28;20444;-90
2023/06/11 04:56:45;;;;;;;8.33;3.93;;;18.90;98.00;;;;;;5012976;28;20711;-90
2023/06/11 04:59:12;;;;;;;8.87;4.43;;;18.90;98.00;;;;;;5012768;28;20557;-90
2023/06/11 05:01:46;;;;;;;7.33;4.40;;;19.00;98.00;;;;;;5012991;28;20949;-90
2023/06/11 05:04:14;;;;;;;7.97;4.10;;;19.00;98.00;;;;;;5012635;28;20463;-90
2023/06/11 05:06:44;;;;;;;7.77;4.47;;;19.10;98.00;;;;;;5011618;28;20519;-91
2023/06/11 05:09:13;;;;;;;8.30;4.30;;;19.20;98.00;;;;;;5012637;28;20510;-91
2023/06/11 05:11:42;;;;;;;7.97;4.90;;;19.30;98.00;;;;;;5012436;28;20475;-91
2023/06/11 05:14:11;;;;;;;7.10;3.93;;;19.40;98.00;;;;;;5012609;28;20965;-90
2023/06/11 05:16:38;;;;;;;7.83;4.40;;;19.40;98.00;;;;;;5011561;28;20490;-91
2023/06/11 05:19:06;;;;;;;8.10;4.40;;;19.50;98.00;;;;;;5012036;28;20487;-90
2023/06/11 05:21:34;;;;;;;6.77;4.10;;;19.50;98.00;;;;;;5012393;28;20502;-90
2023/06/11 05:24:07;;;;;;;8.50;4.60;;;19.50;98.00;;;;;;5012329;28;20899;-90
2023/06/11 05:26:35;;;;;;;7.97;4.40;;;19.60;98.00;;;;;;5011502;28;20472;-91
2023/06/11 05:29:03;;;;;;;8.40;4.80;;;19.70;98.00;;;;;;5012487;28;20459;-91
2023/06/11 05:31:35;;;;;;;8.93;4.50;;;19.70;98.00;;;;;;5012067;28;20594;-91
2023/06/11 05:34:02;;;;;;;8.30;4.43;;;19.80;98.00;;;;;;5011896;28;20570;-91
2023/06/11 05:36:29;;;;;;;8.30;4.80;;;19.90;98.00;;;;;;5011423;28;20498;-91
2023/06/11 05:38:57;;;;;;;7.57;3.90;;;19.90;98.00;;;;;;5012288;28;20984;-90
2023/06/11 05:41:24;;;;;;;9.80;4.57;;;20.00;98.00;;;;;;5012163;28;20502;-92
2023/06/11 05:43:51;;;;;;;8.23;4.47;;;20.00;98.00;;;;;;5013916;28;20462;-91
2023/06/11 05:46:18;;;;;;;11.60;4.47;;;20.10;98.00;;;;;;5015232;28;20896;-90
2023/06/11 05:48:47;;;;;;;8.93;4.40;;;20.20;98.00;;;;;;5015722;28;20960;-91
2023/06/11 05:51:14;;;;;;;8.00;4.37;;;20.30;98.00;;;;;;5015668;28;20503;-89
2023/06/11 05:53:41;;;;;;;10.30;4.97;;;20.40;98.00;;;;;;5015972;28;20498;-90
2023/06/11 05:56:08;;;;;;;10.00;4.73;;;20.40;98.00;;;;;;5015155;28;20482;-91
2023/06/11 05:58:35;;;;;;;9.67;5.10;;;20.40;98.00;;;;;;5015131;28;20514;-90
2023/06/11 06:01:03;;;;;;;8.37;4.80;;;20.40;98.00;;;;;;5015775;28;20554;-91
2023/06/11 06:03:31;;;;;;;8.73;4.90;;;20.40;98.00;;;;;;5015267;28;20451;-91
2023/06/11 06:06:01;;;;;;;8.20;4.30;;;20.50;98.00;;;;;;5014795;28;20984;-91
2023/06/11 06:08:29;;;;;;;9.10;5.30;;;20.60;98.00;;;;;;5015200;28;20447;-91
2023/06/11 06:10:56;;;;;;;9.83;4.93;;;20.60;98.00;;;;;;5015439;28;20474;-90
2023/06/11 06:13:25;;;;;;;6.93;4.13;;;20.70;98.00;;;;;;5015312;28;20953;-90
2023/06/11 06:15:52;;;;;;;8.50;4.97;;;20.80;98.00;;;;;;5014880;28;20479;-91
2023/06/11 06:18:19;;;;;;;7.30;4.70;;;20.90;98.00;;;;;;5015447;28;20494;-90
2023/06/11 06:20:46;;;;;;;8.40;5.23;;;21.00;98.00;;;;;;5015043;28;20874;-91
2023/06/11 06:23:15;;;;;;;10.60;5.20;;;21.20;98.00;;;;;;5015055;28;20505;-89
2023/06/11 06:25:42;;;;;;;9.87;5.50;;;21.30;98.00;;;;;;5014580;28;20828;-89
2023/06/11 06:28:09;;;;;;;7.93;4.40;;;21.40;98.00;;;;;;5015016;28;21005;-90
2023/06/11 06:30:38;;;;;;;10.30;4.70;;;21.40;98.00;;;;;;5014836;28;20530;-90
2023/06/11 06:33:05;;;;;;;8.53;4.90;;;21.60;98.00;;;;;;5014945;28;20475;-90
2023/06/11 06:35:33;;;;;;;8.43;5.10;;;21.70;98.00;;;;;;5014673;28;20500;-90
2023/06/11 06:38:00;;;;;;;9.00;5.03;;;21.80;98.00;;;;;;5014129;28;20483;-90
2023/06/11 06:40:29;;;;;;;8.90;5.20;;;21.70;98.00;;;;;;5014918;28;20841;-91
2023/06/11 06:42:56;;;;;;;6.70;4.20;;;21.90;98.00;;;;;;5014587;28;20525;-90
2023/06/11 06:45:23;;;;;;;9.43;4.97;;;21.90;98.00;;;;;;5014577;28;20534;-90
2023/06/11 06:47:50;;;;;;;8.50;5.00;;;22.10;98.00;;;;;;5013804;28;20459;-90
2023/06/11 06:50:17;;;;;;;8.53;5.03;;;22.00;98.00;;;;;;5014695;28;20503;-90
2023/06/11 06:52:44;;;;;;;7.63;4.57;;;22.10;98.00;;;;;;5014010;28;20471;-88
2023/06/11 06:55:11;;;;;;;6.80;4.40;;;22.20;98.00;;;;;;5013957;28;20467;-89
2023/06/11 06:57:40;;;;;;;10.80;5.37;;;22.20;98.00;;;;;;5013813;28;20494;-89
2023/06/11 07:00:09;;;;;;;8.93;5.00;;;22.40;98.00;;;;;;5014119;28;20451;-89
2023/06/11 07:02:36;;;;;;;9.90;4.87;;;22.40;98.00;;;;;;5014285;28;20451;-90
2023/06/11 07:05:03;;;;;;;8.87;4.90;;;22.40;98.00;;;;;;5014103;28;20873;-90
2023/06/11 07:07:30;;;;;;;8.50;4.83;;;22.40;98.00;;;;;;5013549;28;20501;-88
2023/06/11 07:09:57;;;;;;;8.40;4.80;;;22.50;98.00;;;;;;5014200;28;20455;-87
2023/06/11 07:12:24;;;;;;;8.63;3.93;;;22.70;98.00;;;;;;5013720;28;20451;-88
2023/06/11 07:14:53;;;;;;;8.20;3.70;;;22.90;98.00;;;;;;5013997;28;20444;-88
2023/06/11 07:17:21;;;;;;;7.60;4.63;;;23.00;98.00;;;;;;5013441;28;20483;-87
2023/06/11 07:19:48;;;;;;;9.90;5.10;;;23.20;98.00;;;;;;5013752;28;20849;-88
2023/06/11 07:22:15;;;;;;;9.00;4.93;;;23.40;98.00;;;;;;5013695;28;20555;-88
2023/06/11 07:24:46;;;;;;;12.57;5.30;;;23.60;98.00;;;;;;5013728;28;20878;-88
2023/06/11 07:27:13;;;;;;;10.27;5.23;;;23.70;98.00;;;;;;5013254;28;20491;-88
2023/06/11 07:29:40;;;;;;;9.53;5.13;;;23.70;98.00;;;;;;5013603;28;20499;-89
2023/06/11 07:32:09;;;;;;;8.70;5.03;;;23.80;98.00;;;;;;5013542;28;20482;-88
2023/06/11 07:34:36;;;;;;;9.53;4.50;;;24.00;98.00;;;;;;5013396;28;20521;-89
2023/06/11 07:37:04;;;;;;;10.70;5.70;;;24.00;98.00;;;;;;5012767;28;20483;-88
2023/06/11 07:39:31;;;;;;;8.37;5.03;;;24.10;98.00;;;;;;5013329;28;20472;-89
2023/06/11 07:42:01;;;;;;;7.70;4.73;;;24.20;98.00;;;;;;5013965;28;20463;-88
2023/06/11 07:44:28;;;;;;;7.67;4.70;;;24.40;98.00;;;;;;5014157;28;20973;-89
2023/06/11 07:46:56;;;;;;;7.53;4.70;;;24.40;97.80;;;;;;5012788;28;20483;-88
2023/06/11 07:49:24;;;;;;;9.83;5.23;;;24.40;96.70;;;;;;5013312;28;20463;-89
2023/06/11 07:51:51;;;;;;;8.13;5.20;;;24.50;95.80;;;;;;5013365;28;20956;-89
2023/06/11 07:54:18;;;;;;;8.90;4.83;;;24.60;96.20;;;;;;5013253;28;20463;-88
2023/06/11 07:56:46;;;;;;;9.23;4.80;;;24.70;95.00;;;;;;5012381;28;20516;-89
2023/06/11 07:59:13;;;;;;;10.27;5.00;;;24.80;94.10;;;;;;5012679;28;20911;-88
2023/06/11 08:01:41;;;;;;;6.70;4.23;;;24.80;93.30;;;;;;5012922;28;21710;-89
2023/06/11 08:04:08;;;;;;;9.13;5.53;;;24.90;93.30;;;;;;5004035;28;20871;-89
2023/06/11 08:06:37;;;;;;;8.60;5.03;;;25.00;93.10;;;;;;4994496;28;20504;-88
2023/06/11 08:09:05;;;;;;;7.00;4.20;;;25.10;92.80;;;;;;5006839;28;20521;-89
2023/06/11 08:11:32;;;;;;;7.50;4.60;;;25.20;93.50;;;;;;5012435;28;20463;-89
2023/06/11 08:13:59;;;;;;;7.40;4.83;;;25.20;92.00;;;;;;5012892;28;20463;-88
2023/06/11 08:16:27;;;;;;;9.57;5.37;;;25.40;92.00;;;;;;5012100;28;20498;-90
2023/06/11 08:18:54;;;;;;;8.53;5.27;;;25.40;90.90;;;;;;5013076;28;20514;-90
2023/06/11 08:21:21;;;;;;;8.33;4.80;;;25.40;90.70;;;;;;5012929;28;20518;-91
2023/06/11 08:23:51;;;;;;;8.80;5.13;;;25.50;89.40;;;;;;5013283;28;20471;-90
2023/06/11 08:26:19;;;;;;;7.30;5.00;;;25.70;88.70;;;;;;5012422;28;20472;-90
2023/06/11 08:28:46;;;;;;;6.83;4.20;;;25.80;88.30;;;;;;5013430;28;20460;-90
2023/06/11 08:31:14;;;;;;;6.43;4.47;;;25.80;87.20;;;;;;5012939;28;20452;-91
2023/06/11 08:33:41;;;;;;;11.43;6.00;;;25.80;86.50;;;;;;5012851;28;20929;-91
2023/06/11 08:36:14;;;;;;;9.40;5.43;;;25.80;85.70;;;;;;5012493;28;20479;-89
2023/06/11 08:38:41;;;;;;;7.70;4.63;;;25.90;86.30;;;;;;5011505;28;20486;-90
2023/06/11 08:41:09;;;;;;;8.90;5.20;;;25.90;86.00;;;;;;5011785;28;20460;-91
2023/06/11 08:43:37;;;;;;;8.07;5.03;;;26.10;84.70;;;;;;5011994;28;21028;-89
2023/06/11 08:46:05;;;;;;;6.73;4.57;;;26.20;84.80;;;;;;5012205;28;21084;-90
2023/06/11 08:48:37;;;;;;;9.47;5.37;;;26.20;83.90;;;;;;5012703;28;20791;-90
2023/06/11 08:51:07;;;;;;;7.47;4.87;;;26.30;83.60;;;;;;5012289;28;20467;-90
2023/06/11 08:53:35;;;;;;;7.13;4.77;;;26.40;84.10;;;;;;5012345;28;20466;-90
2023/06/11 08:56:02;;;;;;;8.37;5.40;;;26.50;84.20;;;;;;5012007;28;20861;-90
2023/06/11 08:58:33;;;;;;;8.00;4.90;;;26.60;84.00;;;;;;5012429;28;20981;-90
2023/06/11 09:01:08;;;;;;;8.23;5.27;;;26.70;83.70;;;;;;5010823;28;20922;-89
2023/06/11 09:03:35;;;;;;;8.17;4.97;;;26.80;82.50;;;;;;4992130;28;20448;-89
2023/06/11 09:06:02;;;;;;;9.03;5.13;;;26.90;84.10;;;;;;4991643;28;20472;-89
2023/06/11 09:08:29;;;;;;;8.77;5.00;;;27.00;83.00;;;;;;4992300;28;20453;-89
2023/06/11 09:10:59;;;;;;;10.63;5.20;;;27.10;82.20;;;;;;5008904;28;20546;-89
2023/06/11 09:13:28;;;;;;;8.20;5.27;;;27.20;82.30;;;;;;5011908;28;20446;-90
2023/06/11 09:15:57;;;;;;;10.17;4.90;;;27.40;82.10;;;;;;5012096;28;20896;-90
2023/06/11 09:18:25;;;;;;;8.40;5.00;;;27.40;81.00;;;;;;5012768;28;20451;-89
2023/06/11 09:20:54;;;;;;;7.60;4.70;;;27.50;81.10;;;;;;5016351;28;20459;-91
2023/06/11 09:23:26;;;;;;;8.47;5.13;;;27.50;81.10;;;;;;5015921;28;20923;-90
2023/06/11 09:25:55;;;;;;;6.83;4.40;;;27.60;81.70;;;;;;5015722;28;20565;-90
2023/06/11 09:28:28;;;;;;;9.43;5.30;;;27.70;80.00;;;;;;5015763;28;20497;-91
2023/06/11 09:31:01;;;;;;;9.03;5.30;;;27.80;78.30;;;;;;5016981;28;20444;-89
2023/06/11 09:33:29;;;;;;;9.67;5.50;;;27.70;79.20;;;;;;5017026;28;20813;-90
2023/06/11 09:35:59;;;;;;;8.07;4.60;;;27.80;77.20;;;;;;5016683;28;20581;-91
2023/06/11 09:38:27;;;;;;;9.20;5.00;;;27.80;78.00;;;;;;5015096;28;20858;-90
2023/06/11 09:40:56;;;;;;;8.70;5.50;;;27.90;80.10;;;;;;5015400;28;20463;-91
2023/06/11 09:43:37;;;;;;;8.40;5.30;;;28.00;77.80;;;;;;5015239;28;20459;-90
2023/06/11 09:46:49;;;;;;;8.63;5.37;;;28.00;76.90;;;;;;5015821;28;20494;-89
2023/06/11 09:49:24;;;;;;;8.90;5.10;;;28.20;79.20;;;;;;5014988;28;20455;-90
2023/06/11 09:52:22;;;;;;;9.30;4.53;;;28.20;76.50;;;;;;5014493;28;20468;-90
2023/06/11 09:57:29;;;;;;;7.83;5.07;;;28.40;77.20;;;;;;5059934;22;20480;-66
2023/06/11 09:59:56;;;;;;;9.03;5.00;;;28.50;77.00;;;;;;5054663;28;20567;-66
2023/06/11 10:02:25;;;;;;;9.13;5.43;;;28.60;77.10;;;;;;5054614;28;20453;-66
2023/06/11 10:04:52;;;;;;;9.23;5.47;;;28.60;76.80;;;;;;5036984;28;20464;-66
2023/06/11 10:07:21;;;;;;;6.93;5.00;;;28.80;78.00;;;;;;5054773;28;20454;-66
2023/06/11 10:09:52;;;;;;;9.27;5.20;;;29.00;76.60;;;;;;5054498;28;20458;-66
2023/06/11 10:12:20;;;;;;;10.73;6.30;;;29.20;76.70;;;;;;5037609;28;20943;-66
2023/06/11 10:14:51;;;;;;;8.80;5.37;;;29.20;75.90;;;;;;5054435;28;20454;-66
2023/06/11 10:17:19;;;;;;;7.77;5.20;;;29.00;75.60;;;;;;5054696;28;20540;-66
2023/06/11 10:19:51;;;;;;;8.30;5.10;;;29.00;74.70;;;;;;5054305;28;20488;-66
2023/06/11 10:22:22;;;;;;;8.23;4.97;;;29.00;76.20;;;;;;5054167;28;20533;-66
2023/06/11 10:25:00;;;;;;;9.17;5.17;;;29.10;75.60;;;;;;5053628;28;20800;-66
2023/06/11 10:27:36;;;;;;;7.57;4.70;;;29.20;76.50;;;;;;5053648;28;20552;-67
2023/06/11 10:30:05;;;;;;;8.10;5.33;;;29.40;75.70;;;;;;5052623;28;20485;-66
2023/06/11 10:32:32;;;;;;;8.90;4.80;;;29.50;75.60;;;;;;5035256;28;20498;-66
2023/06/11 10:35:04;;;;;;;7.93;5.00;;;29.70;74.00;;;;;;5053673;28;20465;-66
2023/06/11 10:37:32;;;;;;;7.67;5.47;;;29.80;73.60;;;;;;5053933;28;20477;-66
2023/06/11 10:40:00;;;;;;;8.80;5.40;;;29.80;73.00;;;;;;5053615;28;21053;-66
2023/06/11 10:42:29;;;;;;;8.10;5.23;;;29.80;74.00;;;;;;5053698;28;20855;-66
2023/06/11 10:45:00;;;;;;;14.13;5.30;;;29.70;72.60;;;;;;5053773;28;20461;-66
2023/06/11 10:47:30;;;;;;;8.57;5.03;;;29.90;71.90;;;;;;5053786;28;20786;-66
2023/06/11 10:50:08;;;;;;;7.90;5.00;;;30.00;72.30;;;;;;5053449;28;20457;-66
2023/06/11 10:52:50;;;;;;;7.00;4.67;;;30.10;71.70;;;;;;5053540;28;20450;-67
2023/06/11 10:55:18;;;;;;;8.87;5.50;;;30.30;72.50;;;;;;5053263;28;20523;-66
2023/06/11 10:57:47;;;;;;;7.77;5.10;;;30.60;72.00;;;;;;5035870;28;21030;-66
2023/06/11 11:00:15;;;;;;;10.10;6.00;;;30.70;72.10;;;;;;5035864;28;20485;-66
2023/06/11 11:02:42;;;;;;;7.10;5.13;;;30.70;70.70;;;;;;5053090;28;20453;-66
2023/06/11 11:05:12;;;;;;;8.70;5.40;;;30.90;70.90;;;;;;5035376;28;20866;-66
2023/06/11 11:07:39;;;;;;;9.43;5.10;;;31.00;70.40;;;;;;5053047;28;20639;-66
2023/06/11 11:10:08;;;;;;;10.27;5.50;;;31.20;70.60;;;;;;5053126;28;20464;-66
2023/06/11 11:12:43;;;;;;;9.40;5.47;;;31.20;68.90;;;;;;5052912;28;20465;-66
2023/06/11 11:15:12;;;;;;;8.00;5.20;;;30.80;70.00;;;;;;5052899;28;20461;-66
2023/06/11 11:17:40;;;;;;;7.30;5.23;;;30.70;69.90;;;;;;5052881;28;20450;-66
2023/06/11 11:20:11;;;;;;;8.93;5.63;;;30.80;70.70;;;;;;5052809;28;20580;-66
2023/06/11 11:22:39;;;;;;;8.33;5.10;;;30.70;69.90;;;;;;5052699;28;20456;-66
2023/06/11 11:25:08;;;;;;;7.37;5.00;;;30.90;70.20;;;;;;5053123;28;20457;-66
2023/06/11 11:27:37;;;;;;;7.77;5.23;;;31.20;70.80;;;;;;5035100;28;20963;-66
2023/06/11 11:30:06;;;;;;;7.80;5.03;;;31.60;70.10;;;;;;5052570;28;20987;-66
2023/06/11 11:32:34;;;;;;;8.23;5.20;;;32.00;68.90;;;;;;5035082;28;20790;-66
2023/06/11 11:35:02;;;;;;;10.73;5.00;;;32.10;67.90;;;;;;5052696;28;20454;-67
2023/06/11 11:37:32;;;;;;;8.40;5.33;;;32.20;67.70;;;;;;5052666;28;20821;-66
2023/06/11 11:40:01;;;;;;;7.90;5.07;;;32.30;66.70;;;;;;5052408;28;20489;-66
2023/06/11 11:42:29;;;;;;;6.97;4.73;;;32.10;66.70;;;;;;5034940;28;20466;-66
2023/06/11 11:44:57;;;;;;;9.20;5.33;;;32.00;66.60;;;;;;5052719;28;20454;-66
2023/06/11 11:47:27;;;;;;;8.80;5.30;;;32.20;67.50;;;;;;5034748;28;20450;-66
2023/06/11 11:49:55;;;;;;;7.90;5.20;;;32.40;66.80;;;;;;5034757;28;20461;-66
2023/06/11 11:52:27;;;;;;;7.37;4.93;;;32.60;67.20;;;;;;5052365;28;20498;-66
2023/06/11 11:54:57;;;;;;;8.93;5.30;;;32.60;66.50;;;;;;5052194;28;20541;-66
2023/06/11 11:57:25;;;;;;;8.83;5.50;;;32.80;66.40;;;;;;5050243;28;20560;-67
2023/06/11 11:59:53;;;;;;;7.70;5.50;;;33.10;66.20;;;;;;5050141;28;20492;-66
2023/06/11 12:02:27;;;;;;;9.27;5.50;;;33.20;65.00;;;;;;5051536;28;20507;-67
2023/06/11 12:04:59;;;;;;;8.50;5.37;;;33.40;65.30;;;;;;5031784;28;20482;-66
2023/06/11 12:07:26;;;;;;;9.40;5.60;;;33.10;65.70;;;;;;5031792;28;20461;-66
2023/06/11 12:09:55;;;;;;;8.33;5.63;;;33.30;65.10;;;;;;5031742;28;20561;-66
2023/06/11 12:12:22;;;;;;;8.73;5.63;;;33.60;64.00;;;;;;5014216;28;20461;-66
2023/06/11 12:14:49;;;;;;;7.70;4.87;;;33.70;63.30;;;;;;5036335;28;20480;-67
2023/06/11 12:17:16;;;;;;;9.80;6.13;;;33.80;63.60;;;;;;5033682;28;20511;-67
2023/06/11 12:19:43;;;;;;;11.20;6.10;;;33.80;64.40;;;;;;5051196;28;20504;-66
2023/06/11 12:22:10;;;;;;;11.30;5.53;;;33.80;64.00;;;;;;5051661;28;20540;-66
2023/06/11 12:24:37;;;;;;;9.37;5.90;;;33.50;63.70;;;;;;5051480;28;20825;-66
2023/06/11 12:27:08;;;;;;;11.57;5.83;;;33.20;64.90;;;;;;5051378;28;20813;-65
2023/06/11 12:29:36;;;;;;;7.23;5.30;;;33.00;65.00;;;;;;5051336;28;20460;-66
2023/06/11 12:32:03;;;;;;;9.93;5.73;;;32.40;65.50;;;;;;5051515;28;20799;-66
2023/06/11 12:34:30;;;;;;;8.23;5.60;;;32.00;66.60;;;;;;5051574;28;20461;-66
2023/06/11 12:36:57;;;;;;;9.00;5.80;;;32.00;66.70;;;;;;5051461;28;20449;-66
2023/06/11 12:39:24;;;;;;;9.33;5.60;;;32.50;66.90;;;;;;5050941;28;20851;-65
2023/06/11 12:41:52;;;;;;;7.87;5.10;;;33.00;65.30;;;;;;5051071;28;21017;-66
2023/06/11 12:44:20;;;;;;;8.90;5.20;;;33.20;65.50;;;;;;5051454;28;20461;-66
2023/06/11 12:46:50;;;;;;;9.73;5.47;;;33.50;65.20;;;;;;5050868;28;20458;-66
2023/06/11 12:49:17;;;;;;;7.80;5.20;;;33.80;63.20;;;;;;5051104;28;20960;-66
2023/06/11 12:51:46;;;;;;;8.07;5.77;;;34.10;62.30;;;;;;5050611;28;20469;-66
2023/06/11 12:54:14;;;;;;;8.57;5.50;;;34.40;62.00;;;;;;5050708;28;20466;-66
2023/06/11 12:56:41;;;;;;;9.20;5.80;;;34.70;60.50;;;;;;5050617;28;20493;-66